Seishin Maru — JL6275 — position and weather

sailwx.info

Track history (hours):
 
Tides and Currents Weather Stations Pressure Air Temp Water Temp Dewpoint Dewpoint Depression Visibility Wind Speed Wind Dir Waves Ship Positions

Seishin Maru

Last reported at 2018-Feb-17 11:45 UTC. Time now 2018-Feb-19 12:01 UTC.
Position N 33°42' E 129°56'.

Length 76 m; draft 4.2 m.

Type: Cargo ship. MMSI: 431500543.

Date/timePositionNaut miles runAvg speedWind from/ knotsBaromVisibWave heightAir tempDewpointWater temp
2018-Feb-17 11:45N 33°42' E 129°56'210.0
2018-Feb-17 11:30N 33°43' E 129°58'510.3
2018-Feb-17 11:00N 33°46' E 130°03'510.2
2018-Feb-17 10:30N 33°50' E 130°07'510.0
2018-Feb-17 10:00N 33°53' E 130°11'5 9.9
2018-Feb-17 09:30N 33°57' E 130°16'4 8.9
2018-Feb-17 09:00N 33°58' E 130°21'5 9.4
2018-Feb-17 08:30N 33°58' E 130°27'5 9.4
2018-Feb-17 08:00N 33°58' E 130°32'5 9.3
2018-Feb-17 07:30N 33°58' E 130°38'5 9.1
2018-Feb-17 06:59N 33°58' E 130°44'4 8.9
2018-Feb-17 06:30N 33°58' E 130°49'4 7.7
2018-Feb-17 06:00N 33°56' E 130°53'1 1.6
2018-Feb-17 05:30N 33°56' E 130°54'0 0.0
2018-Feb-17 05:00N 33°56' E 130°54'1 2.5
2018-Feb-17 04:30N 33°56' E 130°52'4 8.6
2018-Feb-17 04:00N 34°00' E 130°52'5 9.9
2018-Feb-17 03:30N 34°05' E 130°50'510.0
2018-Feb-17 03:00N 34°10' E 130°49'5 9.6
2018-Feb-17 02:30N 34°15' E 130°49'5 9.8
2018-Feb-17 02:00N 34°20' E 130°49'5 8.9
2018-Feb-17 01:24N 34°25' E 130°51'  
Track history (hours):
 
Tides and Currents Weather Stations Pressure Air Temp Water Temp Dewpoint Dewpoint Depression Visibility Wind Speed Wind Dir Waves Ship Positions

Seishin Maru

Last reported at 2018-Feb-17 11:45 UTC. Time now 2018-Feb-19 12:01 UTC.
Position N 33°42' E 129°56'.

Length 76 m; draft 4.2 m.

Type: Cargo ship. MMSI: 431500543.

Date/timePositionNaut miles runAvg speedWind from/ knotsBaromVisibWave heightAir tempDewpointWater temp
2018-Feb-17 11:45N 33°42' E 129°56'210.0
2018-Feb-17 11:30N 33°43' E 129°58'510.3
2018-Feb-17 11:00N 33°46' E 130°03'510.2
2018-Feb-17 10:30N 33°50' E 130°07'510.0
2018-Feb-17 10:00N 33°53' E 130°11'5 9.9
2018-Feb-17 09:30N 33°57' E 130°16'4 8.9
2018-Feb-17 09:00N 33°58' E 130°21'5 9.4
2018-Feb-17 08:30N 33°58' E 130°27'5 9.4
2018-Feb-17 08:00N 33°58' E 130°32'5 9.3
2018-Feb-17 07:30N 33°58' E 130°38'5 9.1
2018-Feb-17 06:59N 33°58' E 130°44'4 8.9
2018-Feb-17 06:30N 33°58' E 130°49'4 7.7
2018-Feb-17 06:00N 33°56' E 130°53'1 1.6
2018-Feb-17 05:30N 33°56' E 130°54'0 0.0
2018-Feb-17 05:00N 33°56' E 130°54'1 2.5
2018-Feb-17 04:30N 33°56' E 130°52'4 8.6
2018-Feb-17 04:00N 34°00' E 130°52'5 9.9
2018-Feb-17 03:30N 34°05' E 130°50'510.0
2018-Feb-17 03:00N 34°10' E 130°49'5 9.6
2018-Feb-17 02:30N 34°15' E 130°49'5 9.8
2018-Feb-17 02:00N 34°20' E 130°49'5 8.9
2018-Feb-17 01:24N 34°25' E 130°51'  

Dump ship's entire track history